createdAt,value
2019-05-22T00:05:11.240Z,50.38
2019-05-22T00:10:20.113Z,50.23
2019-05-22T00:15:25.024Z,50.23
2019-05-22T00:20:29.568Z,50.44
2019-05-22T00:25:35.373Z,49.74
2019-05-22T00:30:42.067Z,50.09
2019-05-22T00:35:46.055Z,50.09
2019-05-22T00:40:55.106Z,49.85
2019-05-22T00:45:58.910Z,49.85
2019-05-22T00:51:21.782Z,50.41
2019-05-22T00:56:43.931Z,50.16
2019-05-22T01:01:53.043Z,50.33
2019-05-22T01:06:58.555Z,50.27
2019-05-22T01:12:02.841Z,50.19
2019-05-22T01:17:08.173Z,50.43
2019-05-22T01:22:13.594Z,50.45
2019-05-22T01:27:18.283Z,50.49
2019-05-22T01:32:33.641Z,50.48
2019-05-22T01:37:37.611Z,50.24
2019-05-22T01:42:42.099Z,50.80
2019-05-22T01:47:54.154Z,50.48
2019-05-22T01:52:59.274Z,50.40
2019-05-22T01:58:04.760Z,50.55
2019-05-22T02:03:08.562Z,50.32
2019-05-22T02:08:12.523Z,50.66
2019-05-22T02:13:19.015Z,50.68
2019-05-22T02:18:23.130Z,50.59
2019-05-22T02:23:26.929Z,50.86
2019-05-22T02:28:30.689Z,50.86
2019-05-22T02:33:36.648Z,50.82
2019-05-22T02:38:40.429Z,51.09
2019-05-22T02:43:44.211Z,51.09
2019-05-22T02:48:49.152Z,50.85
2019-05-22T02:53:55.043Z,50.73
2019-05-22T02:58:58.890Z,51.36
2019-05-22T03:04:02.717Z,51.26
2019-05-22T03:09:29.342Z,51.26
2019-05-22T03:14:35.106Z,51.19
2019-05-22T03:19:42.789Z,50.58
2019-05-22T03:24:46.726Z,50.58
2019-05-22T03:29:52.760Z,50.98
2019-05-22T03:34:56.660Z,50.99
2019-05-22T03:40:00.780Z,50.99
2019-05-22T03:45:05.709Z,50.85
2019-05-22T03:50:09.738Z,50.34
2019-05-22T03:55:14.174Z,50.62
2019-05-22T04:00:19.840Z,50.01
2019-05-22T04:05:25.201Z,49.78
2019-05-22T04:10:34.975Z,49.95
2019-05-22T04:15:39.300Z,49.70
2019-05-22T04:20:43.167Z,49.28
2019-05-22T04:25:47.070Z,49.28
2019-05-22T04:30:50.861Z,49.31
2019-05-22T04:35:55.250Z,49.31
2019-05-22T04:40:59.891Z,49.06
2019-05-22T04:46:08.444Z,49.06
2019-05-22T04:51:30.020Z,49.47
2019-05-22T04:56:33.984Z,49.47
2019-05-22T05:01:38.200Z,49.49
2019-05-22T05:06:41.967Z,49.58
2019-05-22T05:11:45.740Z,49.24
2019-05-22T05:16:49.561Z,49.24
2019-05-22T05:21:53.334Z,48.99
2019-05-22T05:26:58.031Z,49.09
2019-05-22T05:32:02.917Z,48.71
2019-05-22T05:37:08.130Z,48.71
2019-05-22T05:42:11.901Z,48.69
2019-05-22T05:47:15.673Z,48.60
2019-05-22T05:52:19.740Z,48.82
2019-05-22T05:58:05.758Z,48.69
2019-05-22T06:03:29.975Z,48.00
2019-05-22T06:08:34.501Z,48.00
2019-05-22T06:13:38.568Z,47.88
2019-05-22T06:18:42.830Z,47.88
2019-05-22T06:24:14.319Z,47.88
2019-05-22T06:29:19.754Z,47.93
2019-05-22T06:34:24.180Z,48.29
2019-05-22T06:39:27.942Z,47.66
2019-05-22T06:44:33.926Z,47.25
2019-05-22T06:50:07.275Z,46.98
2019-05-22T06:55:11.240Z,46.98
2019-05-22T07:00:18.251Z,46.33
2019-05-22T07:05:22.149Z,46.71
2019-05-22T07:10:26.062Z,46.71
2019-05-22T07:15:52.320Z,46.76
2019-05-22T07:20:58.260Z,45.77
2019-05-22T07:26:04.872Z,46.86
2019-05-22T07:31:08.721Z,47.63
2019-05-22T07:36:16.633Z,48.26
2019-05-22T07:41:18.420Z,47.60
2019-05-22T07:46:22.232Z,48.42
2019-05-22T07:51:26.055Z,48.47
2019-05-22T07:56:29.847Z,48.36
2019-05-22T08:01:33.665Z,48.36
2019-05-22T08:06:37.610Z,48.99
2019-05-22T08:11:41.395Z,49.82
2019-05-22T08:16:45.169Z,49.55
2019-05-22T08:21:49.184Z,49.55
2019-05-22T08:26:54.827Z,49.99
2019-05-22T08:31:58.521Z,50.81
2019-05-22T08:37:02.326Z,51.81
2019-05-22T08:42:09.386Z,50.66
2019-05-22T08:47:16.112Z,50.66
2019-05-22T08:52:23.601Z,50.90
2019-05-22T08:57:25.975Z,50.56
2019-05-22T09:02:30.667Z,50.91
2019-05-22T09:07:35.150Z,51.27
2019-05-22T09:12:38.927Z,51.32
2019-05-22T09:17:42.988Z,51.27
2019-05-22T09:22:47.301Z,51.27
2019-05-22T09:27:51.185Z,52.00
2019-05-22T09:32:56.189Z,52.38
2019-05-22T09:37:59.983Z,52.38
2019-05-22T09:43:05.221Z,47.79
2019-05-22T09:48:08.991Z,47.07
2019-05-22T09:53:13.057Z,47.38
2019-05-22T09:58:17.233Z,48.04
2019-05-22T10:03:21.312Z,47.36
2019-05-22T10:08:25.572Z,46.68
2019-05-22T10:13:29.537Z,46.68
2019-05-22T10:18:33.419Z,47.12
2019-05-22T10:23:37.273Z,47.13
2019-05-22T10:28:42.284Z,47.24
2019-05-22T10:33:46.109Z,47.24
2019-05-22T10:38:49.931Z,47.39
2019-05-22T10:43:54.162Z,48.11
2019-05-22T10:48:57.942Z,47.59
2019-05-22T10:54:01.794Z,47.04
2019-05-22T10:59:05.633Z,47.20
2019-05-22T11:04:10.262Z,47.20
2019-05-22T11:09:15.869Z,47.14
2019-05-22T11:14:19.658Z,47.30
2019-05-22T11:19:23.571Z,46.89
2019-05-22T11:24:27.362Z,46.81
2019-05-22T11:29:31.200Z,46.75
2019-05-22T11:34:35.419Z,46.69
2019-05-22T11:39:44.493Z,47.02
2019-05-22T11:44:45.314Z,46.60
2019-05-22T11:49:49.120Z,46.35
2019-05-22T11:54:52.905Z,46.74
2019-05-22T11:59:56.697Z,46.51
2019-05-22T12:05:00.746Z,46.47
2019-05-22T12:10:06.004Z,46.64
2019-05-22T12:15:10.564Z,46.33
2019-05-22T12:20:14.741Z,46.33
2019-05-22T12:25:19.047Z,46.48
2019-05-22T12:30:22.833Z,46.21
2019-05-22T12:35:27.773Z,46.31
2019-05-22T12:40:33.884Z,46.31
2019-05-22T12:45:37.652Z,46.79
2019-05-22T12:50:41.432Z,46.69
2019-05-22T12:55:45.217Z,46.69
2019-05-22T13:00:49.541Z,46.78
2019-05-22T13:05:53.525Z,46.98
2019-05-22T13:10:57.627Z,47.05
2019-05-22T13:16:02.213Z,46.76
2019-05-22T13:21:06.251Z,46.72
2019-05-22T13:26:10.940Z,46.72
2019-05-22T13:31:14.872Z,47.64
2019-05-22T13:36:19.239Z,47.64
2019-05-22T13:41:23.043Z,47.41
2019-05-22T13:46:26.931Z,47.22
2019-05-22T13:51:30.797Z,47.22
2019-05-22T13:56:34.614Z,47.38
2019-05-22T14:01:38.581Z,47.38
2019-05-22T14:06:42.376Z,47.20
2019-05-22T14:11:46.367Z,48.08
2019-05-22T14:16:50.199Z,47.55
2019-05-22T14:21:54.318Z,47.55
2019-05-22T14:26:58.145Z,47.46
2019-05-22T14:32:02.029Z,47.80
2019-05-22T14:37:07.010Z,47.82
2019-05-22T14:42:11.156Z,47.65
2019-05-22T14:47:16.453Z,46.68
2019-05-22T14:52:20.755Z,47.14
2019-05-22T14:57:24.906Z,47.14
2019-05-22T15:02:28.736Z,46.67
2019-05-22T15:07:32.704Z,46.69
2019-05-22T15:12:36.626Z,46.12
2019-05-22T15:17:40.456Z,46.82
2019-05-22T15:22:44.303Z,46.82
2019-05-22T15:27:48.198Z,46.26
2019-05-22T15:32:52.176Z,46.26
2019-05-22T15:37:56.271Z,46.20
2019-05-22T15:43:00.114Z,46.41
2019-05-22T15:48:08.373Z,45.55
2019-05-22T15:53:17.183Z,46.06
2019-05-22T15:58:21.002Z,45.74
2019-05-22T16:03:27.158Z,46.24
2019-05-22T16:08:31.816Z,45.58
2019-05-22T16:13:35.842Z,45.79
2019-05-22T16:18:40.465Z,45.87
2019-05-22T16:23:44.488Z,45.87
2019-05-22T16:28:48.866Z,44.83
2019-05-22T16:33:53.524Z,44.65
2019-05-22T16:38:57.359Z,45.09
2019-05-22T16:44:01.159Z,45.09
2019-05-22T16:49:05.538Z,44.41
2019-05-22T16:54:09.820Z,44.41
2019-05-22T16:59:14.443Z,44.26
2019-05-22T17:04:18.985Z,44.26
2019-05-22T17:09:22.917Z,44.15
2019-05-22T17:14:26.742Z,44.65
2019-05-22T17:19:30.976Z,44.36
2019-05-22T17:24:34.839Z,43.69
2019-05-22T17:29:39.440Z,43.63
2019-05-22T17:34:43.476Z,43.89
2019-05-22T17:39:48.541Z,44.48
2019-05-22T17:44:53.062Z,43.51
2019-05-22T17:49:56.987Z,43.51
2019-05-22T17:55:00.832Z,43.81
2019-05-22T18:00:07.322Z,43.57
2019-05-22T18:05:12.127Z,43.13
2019-05-22T18:10:16.467Z,43.13
2019-05-22T18:15:20.500Z,43.54
2019-05-22T18:20:24.546Z,43.54
2019-05-22T18:25:28.485Z,43.80
2019-05-22T18:30:33.931Z,43.80
2019-05-22T18:35:37.726Z,44.25
2019-05-22T18:40:41.521Z,44.25
2019-05-22T18:45:45.562Z,44.20
2019-05-22T18:50:50.576Z,44.12
2019-05-22T18:55:54.351Z,44.17
2019-05-22T19:00:58.151Z,44.82
2019-05-22T19:06:02.541Z,44.62
2019-05-22T19:11:06.413Z,44.55
2019-05-22T19:16:10.216Z,44.92
2019-05-22T19:21:14.085Z,44.45
2019-05-22T19:26:18.365Z,44.99
2019-05-22T19:31:22.150Z,45.13
2019-05-22T19:36:25.996Z,44.54
2019-05-22T19:41:30.175Z,44.91
2019-05-22T19:46:34.226Z,45.07
2019-05-22T19:51:38.273Z,45.07
2019-05-22T19:56:42.959Z,44.58
2019-05-22T20:01:46.824Z,45.23
2019-05-22T20:06:51.359Z,44.69
2019-05-22T20:11:55.163Z,45.08
2019-05-22T20:16:59.030Z,45.43
2019-05-22T20:22:02.819Z,45.07
2019-05-22T20:27:09.567Z,45.39
2019-05-22T20:32:13.176Z,45.35
2019-05-22T20:37:18.344Z,45.55
2019-05-22T20:42:22.596Z,45.04
2019-05-22T20:47:26.977Z,45.04
2019-05-22T20:52:30.862Z,45.05
2019-05-22T20:57:35.810Z,45.56
2019-05-22T21:02:40.290Z,45.07
2019-05-22T21:07:47.584Z,45.46
2019-05-22T21:12:52.092Z,45.15
2019-05-22T21:17:56.295Z,45.95
2019-05-22T21:23:00.182Z,45.95
2019-05-22T21:28:04.379Z,45.87
2019-05-22T21:33:08.543Z,45.69
2019-05-22T21:38:12.686Z,45.37
2019-05-22T21:43:17.108Z,45.37
2019-05-22T21:48:21.517Z,45.70
2019-05-22T21:53:25.459Z,45.75
2019-05-22T21:58:29.297Z,45.94
2019-05-22T22:03:38.249Z,45.99
2019-05-22T22:08:42.402Z,45.71
2019-05-22T22:13:46.604Z,45.69
2019-05-22T22:18:50.844Z,46.07
2019-05-22T22:23:55.231Z,46.25
2019-05-22T22:28:59.100Z,46.30
2019-05-22T22:34:16.199Z,46.30
2019-05-22T22:39:21.579Z,45.87
2019-05-22T22:44:25.942Z,45.87
2019-05-22T22:49:30.920Z,46.08
2019-05-22T22:54:35.853Z,46.34
2019-05-22T22:59:39.767Z,45.95
2019-05-22T23:04:44.054Z,45.95
2019-05-22T23:09:48.739Z,46.17
2019-05-22T23:14:54.025Z,46.66
2019-05-22T23:19:58.562Z,46.51
2019-05-22T23:25:02.820Z,46.69
2019-05-22T23:30:08.958Z,46.72
2019-05-22T23:35:14.011Z,46.46
2019-05-22T23:40:23.467Z,46.46
2019-05-22T23:45:27.410Z,47.14
2019-05-22T23:50:31.888Z,46.60
2019-05-22T23:55:36.453Z,47.25
